Time;durP1;ratioP1;P1;durP2;ratioP2;P2;SDS_P1;SDS_P2;PMS_P1;PMS_P2;Temp;Humidity;BMP_temperature;BMP_pressure;BME280_temperature;BME280_humidity;BME280_pressure;Samples;Min_cycle;Max_cycle;Signal;HPM_P1;HPM_P2
2021/07/22 00:00:57;;;;;;;16.65;9.27;;;;;;;19.36;79.98;96703.19;5054425;28;20250;-71
2021/07/22 00:03:25;;;;;;;18.95;10.35;;;;;;;19.39;80.48;96700.91;5054192;28;20692;-72
2021/07/22 00:05:52;;;;;;;17.80;9.90;;;;;;;19.24;80.67;96707.63;5053503;28;20282;-70
2021/07/22 00:08:22;;;;;;;14.93;8.95;;;;;;;19.36;79.97;96708.53;5054399;28;20286;-71
2021/07/22 00:10:49;;;;;;;17.35;8.95;;;;;;;19.29;80.12;96707.78;5054241;28;20259;-71
2021/07/22 00:13:17;;;;;;;17.45;9.68;;;;;;;19.02;80.70;96698.34;5054086;28;20287;-70
2021/07/22 00:15:44;;;;;;;17.70;9.65;;;;;;;19.21;79.78;96703.53;5054098;28;20216;-71
2021/07/22 00:18:12;;;;;;;17.20;9.77;;;;;;;19.25;79.08;96703.94;5054406;28;20259;-71
2021/07/22 00:20:39;;;;;;;15.35;9.05;;;;;;;19.24;78.85;96700.41;5054187;28;20205;-71
2021/07/22 00:23:07;;;;;;;17.95;8.93;;;;;;;19.38;78.00;96703.81;5053432;28;20232;-71
2021/07/22 00:25:36;;;;;;;16.67;9.10;;;;;;;19.44;77.67;96708.28;5053709;28;20862;-71
2021/07/22 00:28:04;;;;;;;15.38;9.15;;;;;;;19.39;77.96;96705.44;5054110;28;20205;-70
2021/07/22 00:30:31;;;;;;;19.58;10.27;;;;;;;19.37;77.52;96708.31;5054059;28;20551;-70
2021/07/22 00:32:59;;;;;;;15.13;8.55;;;;;;;19.20;77.75;96707.25;5053836;28;20763;-71
2021/07/22 00:35:26;;;;;;;18.10;9.60;;;;;;;19.26;78.07;96706.38;5053280;28;20617;-71
2021/07/22 00:37:54;;;;;;;17.77;9.90;;;;;;;19.27;78.40;96699.16;5053833;28;20701;-70
2021/07/22 00:40:22;;;;;;;18.90;10.13;;;;;;;19.23;78.86;96700.66;5053866;28;20262;-71
2021/07/22 00:42:58;;;;;;;19.48;10.88;;;;;;;19.36;78.40;96705.88;5054006;28;20201;-70
2021/07/22 00:45:27;;;;;;;14.02;8.38;;;;;;;19.16;78.60;96705.25;5053670;28;20296;-71
2021/07/22 00:47:55;;;;;;;15.43;8.60;;;;;;;19.13;78.66;96700.31;5053856;28;20204;-71
2021/07/22 00:50:23;;;;;;;15.82;8.80;;;;;;;19.25;78.21;96698.59;5053886;28;20287;-71
2021/07/22 00:52:51;;;;;;;17.63;9.45;;;;;;;19.04;79.82;96696.25;5053585;28;20271;-71
2021/07/22 00:55:19;;;;;;;14.73;8.38;;;;;;;19.06;79.68;96688.88;5053136;28;20225;-71
2021/07/22 00:57:47;;;;;;;16.80;8.85;;;;;;;19.12;79.63;96693.34;5053559;28;20205;-71
2021/07/22 01:00:16;;;;;;;14.82;9.07;;;;;;;19.24;78.63;96686.25;5054070;28;20250;-71
2021/07/22 01:02:44;;;;;;;15.75;8.38;;;;;;;19.13;78.79;96682.44;5053347;28;20251;-70
2021/07/22 01:05:12;;;;;;;15.55;8.77;;;;;;;19.12;79.31;96682.66;5052505;28;20221;-71
2021/07/22 01:07:39;;;;;;;14.18;8.27;;;;;;;19.09;79.09;96689.28;5053379;28;20209;-71
2021/07/22 01:10:08;;;;;;;18.10;9.18;;;;;;;19.07;79.73;96677.97;5053150;28;20201;-71
2021/07/22 01:12:35;;;;;;;16.25;8.70;;;;;;;19.00;80.10;96671.84;5052868;28;20251;-71
2021/07/22 01:15:03;;;;;;;20.15;9.43;;;;;;;18.91;80.64;96664.31;5053189;28;20225;-71
2021/07/22 01:17:40;;;;;;;19.33;10.38;;;;;;;18.72;82.47;96665.28;5052974;28;20258;-71
2021/07/22 01:20:16;;;;;;;21.27;10.13;;;;;;;18.87;82.14;96667.66;5053284;28;20271;-71
2021/07/22 01:22:45;;;;;;;18.95;9.50;;;;;;;18.89;81.48;96670.91;5052948;28;20779;-71
2021/07/22 01:25:13;;;;;;;17.38;9.52;;;;;;;19.01;81.08;96669.97;5052852;28;20224;-71
2021/07/22 01:27:40;;;;;;;17.63;9.70;;;;;;;18.96;81.36;96672.50;5053059;28;20209;-70
2021/07/22 01:30:09;;;;;;;20.05;9.68;;;;;;;18.81;81.79;96666.63;5052884;28;20590;-71
2021/07/22 01:32:37;;;;;;;14.95;8.63;;;;;;;18.62;81.60;96664.97;5052756;28;20279;-70
2021/07/22 01:35:05;;;;;;;22.23;9.90;;;;;;;18.72;81.22;96665.28;5051717;28;20707;-71
2021/07/22 01:37:34;;;;;;;18.95;9.70;;;;;;;18.75;81.12;96672.88;5052861;28;20235;-71
2021/07/22 01:40:03;;;;;;;19.67;9.60;;;;;;;18.76;81.08;96658.50;5052829;28;20197;-71
2021/07/22 01:42:32;;;;;;;18.13;9.30;;;;;;;18.93;80.84;96667.59;5052881;28;20223;-71
2021/07/22 01:44:59;;;;;;;19.33;9.80;;;;;;;18.92;80.39;96665.94;5052606;28;20274;-70
2021/07/22 01:47:27;;;;;;;13.38;8.23;;;;;;;18.63;80.23;96665.75;5052564;28;20623;-71
2021/07/22 01:49:55;;;;;;;16.05;8.80;;;;;;;18.51;80.81;96664.84;5052416;28;20581;-71
2021/07/22 01:52:22;;;;;;;16.38;9.05;;;;;;;18.69;80.18;96668.38;5052793;28;20310;-71
2021/07/22 01:54:51;;;;;;;18.98;9.57;;;;;;;18.69;81.37;96670.25;5052327;28;20692;-70
2021/07/22 01:57:19;;;;;;;17.52;9.55;;;;;;;18.65;81.39;96663.72;5051912;28;20681;-71
2021/07/22 01:59:47;;;;;;;17.17;9.18;;;;;;;18.71;80.77;96657.47;5052404;28;20556;-71
2021/07/22 02:02:14;;;;;;;14.93;9.75;;;;;;;18.57;81.51;96654.09;5052365;28;20205;-71
2021/07/22 02:04:42;;;;;;;16.92;9.77;;;;;;;18.52;82.01;96659.28;5052086;28;20229;-71
2021/07/22 02:07:11;;;;;;;19.80;9.23;;;;;;;18.63;80.80;96647.06;5050067;28;20205;-70
2021/07/22 02:09:39;;;;;;;15.55;9.52;;;;;;;18.58;80.20;96647.75;5052273;28;20288;-71
2021/07/22 02:12:09;;;;;;;20.42;10.40;;;;;;;18.43;80.22;96644.53;5052246;28;20205;-70
2021/07/22 02:14:39;;;;;;;14.45;9.27;;;;;;;18.48;81.13;96646.56;5052146;28;20221;-71
2021/07/22 02:17:06;;;;;;;20.70;9.70;;;;;;;18.15;82.24;96645.94;5051952;28;20282;-70
2021/07/22 02:19:34;;;;;;;16.38;9.20;;;;;;;18.48;80.58;96642.06;5052160;28;20197;-71
2021/07/22 02:22:01;;;;;;;15.20;9.00;;;;;;;18.51;80.23;96641.63;5052244;28;20197;-71
2021/07/22 02:24:29;;;;;;;19.73;9.52;;;;;;;18.58;79.05;96642.41;5051729;28;20703;-71
2021/07/22 02:26:57;;;;;;;21.60;9.40;;;;;;;18.67;78.57;96640.25;5051528;28;20209;-71
2021/07/22 02:29:26;;;;;;;20.08;9.98;;;;;;;18.63;80.37;96647.88;5051969;28;20290;-70
2021/07/22 02:31:53;;;;;;;21.08;9.93;;;;;;;18.63;80.15;96645.22;5052011;28;20258;-71
2021/07/22 02:34:21;;;;;;;21.20;9.32;;;;;;;18.64;79.63;96644.19;5051794;28;20627;-70
2021/07/22 02:36:48;;;;;;;19.00;9.43;;;;;;;18.46;79.39;96641.44;5051213;28;20205;-70
2021/07/22 02:39:16;;;;;;;15.70;9.52;;;;;;;18.44;79.51;96630.19;5052034;28;20201;-71
2021/07/22 02:41:44;;;;;;;18.17;8.15;;;;;;;18.45;79.00;96634.47;5051922;28;20263;-71
2021/07/22 02:44:11;;;;;;;17.23;8.95;;;;;;;18.34;79.77;96635.16;5051764;28;20213;-71
2021/07/22 02:46:41;;;;;;;23.73;10.43;;;;;;;18.24;81.46;96643.84;5051180;28;20205;-71
2021/07/22 02:49:09;;;;;;;21.52;9.35;;;;;;;18.41;79.55;96633.25;5051359;28;20672;-70
2021/07/22 02:51:36;;;;;;;18.55;9.27;;;;;;;18.33;79.37;96637.22;5051867;28;20535;-71
2021/07/22 02:54:04;;;;;;;26.17;10.88;;;;;;;18.29;80.51;96638.69;5051320;28;20224;-71
2021/07/22 02:56:32;;;;;;;19.17;9.70;;;;;;;18.54;79.43;96646.50;5051194;28;20201;-71
2021/07/22 02:58:59;;;;;;;18.77;9.38;;;;;;;18.58;78.68;96637.06;5051662;28;20628;-71
2021/07/22 03:01:27;;;;;;;20.70;9.50;;;;;;;18.28;78.73;96635.22;5051289;28;20197;-70
2021/07/22 03:03:56;;;;;;;16.73;8.93;;;;;;;18.32;78.90;96648.91;5051518;28;20260;-70
2021/07/22 03:06:24;;;;;;;16.58;8.35;;;;;;;18.27;79.30;96654.91;5050377;28;20209;-70
2021/07/22 03:08:51;;;;;;;21.70;9.38;;;;;;;18.18;79.84;96653.53;5051453;28;20270;-70
2021/07/22 03:11:19;;;;;;;20.48;9.88;;;;;;;18.27;80.09;96656.78;5051665;28;20205;-71
2021/07/22 03:13:45;;;;;;;20.83;10.00;;;;;;;18.26;79.73;96660.47;5074606;22;20589;-87
2021/07/22 03:16:12;;;;;;;19.55;8.85;;;;;;;18.10;79.44;96669.75;5038057;28;20323;-86
2021/07/22 03:18:38;;;;;;;17.85;8.73;;;;;;;18.05;78.93;96666.06;5031559;28;20743;-87
2021/07/22 03:21:06;;;;;;;19.88;8.77;;;;;;;17.97;79.79;96663.66;5031598;28;20659;-87
2021/07/22 03:23:33;;;;;;;24.73;8.10;;;;;;;18.00;80.06;96668.56;5030742;28;20206;-86
2021/07/22 03:25:59;;;;;;;20.70;8.95;;;;;;;18.03;80.05;96674.28;5031326;28;20226;-87
2021/07/22 03:28:25;;;;;;;21.73;9.40;;;;;;;18.16;79.30;96676.88;5031203;28;20210;-86
2021/07/22 03:30:52;;;;;;;22.48;8.80;;;;;;;17.95;79.21;96671.06;5031307;28;20213;-86
2021/07/22 03:33:19;;;;;;;17.45;8.55;;;;;;;18.03;78.42;96673.47;5030178;28;20222;-86
2021/07/22 03:35:45;;;;;;;13.48;8.02;;;;;;;18.07;78.00;96682.69;5031012;28;20728;-88
2021/07/22 03:38:13;;;;;;;18.92;9.57;;;;;;;18.19;78.12;96668.50;5031273;28;20209;-89
2021/07/22 03:40:39;;;;;;;16.92;8.82;;;;;;;17.97;78.36;96669.81;5031375;28;20198;-88
2021/07/22 03:43:06;;;;;;;16.05;8.48;;;;;;;18.07;77.97;96670.16;5031446;28;20201;-87
2021/07/22 03:45:32;;;;;;;21.58;9.23;;;;;;;17.93;78.18;96667.78;5031278;28;20225;-87
2021/07/22 03:48:02;;;;;;;23.33;8.65;;;;;;;18.06;78.32;96673.03;5031512;28;20198;-87
2021/07/22 03:50:29;;;;;;;20.48;9.13;;;;;;;18.00;78.62;96673.91;5031559;28;20209;-87
2021/07/22 03:52:56;;;;;;;18.55;8.80;;;;;;;17.98;79.13;96678.63;5031417;28;20564;-87
2021/07/22 03:55:25;;;;;;;15.02;8.70;;;;;;;18.08;79.23;96676.31;5031042;28;20589;-89
2021/07/22 03:57:51;;;;;;;16.58;8.55;;;;;;;18.00;79.34;96676.56;5033106;28;20259;-88
2021/07/22 04:00:18;;;;;;;21.67;9.13;;;;;;;18.06;79.43;96678.38;5034229;28;20202;-87
2021/07/22 04:02:45;;;;;;;22.63;9.32;;;;;;;18.15;79.07;96674.44;5034345;28;20206;-87
2021/07/22 04:05:11;;;;;;;17.50;8.60;;;;;;;18.07;79.48;96677.34;5034589;28;20229;-87
2021/07/22 04:07:38;;;;;;;19.58;9.82;;;;;;;17.95;80.34;96673.72;5034338;28;20866;-87
2021/07/22 04:10:05;;;;;;;18.10;9.05;;;;;;;18.05;80.39;96677.56;5034356;28;20201;-89
2021/07/22 04:12:33;;;;;;;18.88;9.70;;;;;;;18.22;80.24;96673.41;5033993;28;20209;-87
2021/07/22 04:14:59;;;;;;;18.08;9.32;;;;;;;18.31;79.84;96671.31;5033750;28;20225;-89
2021/07/22 04:17:25;;;;;;;16.98;8.60;;;;;;;18.06;80.81;96673.03;5033888;28;20556;-87
2021/07/22 04:19:52;;;;;;;19.48;9.60;;;;;;;18.17;81.32;96680.38;5034283;28;20682;-87
2021/07/22 04:22:18;;;;;;;16.95;8.77;;;;;;;18.38;80.28;96673.72;5034247;28;20217;-88
2021/07/22 04:24:45;;;;;;;20.23;9.75;;;;;;;18.41;80.43;96677.81;5033694;28;20211;-87
2021/07/22 04:27:11;;;;;;;15.23;8.73;;;;;;;18.12;82.37;96678.34;5033874;28;20647;-87
2021/07/22 04:29:39;;;;;;;19.33;9.48;;;;;;;18.23;82.43;96676.88;5033668;28;20658;-87
2021/07/22 04:32:06;;;;;;;21.17;9.73;;;;;;;18.56;81.02;96675.69;5033065;28;20584;-87
2021/07/22 04:34:33;;;;;;;20.27;8.23;;;;;;;18.50;81.01;96681.88;5033297;28;20226;-87
2021/07/22 04:36:59;;;;;;;16.85;9.23;;;;;;;18.38;81.53;96684.41;5032237;28;20218;-87
2021/07/22 04:39:25;;;;;;;20.27;8.98;;;;;;;18.29;82.20;96689.38;5033085;28;20213;-86
2021/07/22 04:41:52;;;;;;;16.48;8.82;;;;;;;18.33;82.63;96697.56;5033336;28;20194;-87
2021/07/22 04:44:18;;;;;;;18.58;9.95;;;;;;;18.45;81.70;96689.69;5032829;28;20201;-87
2021/07/22 04:46:46;;;;;;;22.35;9.38;;;;;;;18.73;80.83;96685.59;5031616;28;20226;-87
2021/07/22 04:49:13;;;;;;;18.88;9.50;;;;;;;18.73;80.46;96690.94;5032917;28;20205;-86
2021/07/22 04:51:39;;;;;;;19.55;9.55;;;;;;;18.68;80.44;96690.78;5033499;28;20205;-87
2021/07/22 04:54:05;;;;;;;22.63;10.60;;;;;;;18.84;78.82;96695.59;5034025;28;20217;-86
2021/07/22 04:56:32;;;;;;;20.35;10.00;;;;;;;18.80;79.83;96693.56;5033959;28;20222;-87
2021/07/22 04:58:58;;;;;;;21.38;9.82;;;;;;;18.50;82.26;96688.00;5034411;28;20202;-87
2021/07/22 05:01:25;;;;;;;19.67;9.63;;;;;;;18.92;81.69;96683.84;5033932;28;20289;-87
2021/07/22 05:03:52;;;;;;;26.88;10.45;;;;;;;19.14;80.82;96686.75;5033949;28;20206;-87
2021/07/22 05:06:19;;;;;;;22.30;10.38;;;;;;;19.05;81.48;96687.19;5033982;28;20226;-87
2021/07/22 05:08:45;;;;;;;21.58;11.52;;;;;;;19.05;82.03;96680.03;5033638;28;20208;-87
2021/07/22 05:11:12;;;;;;;19.50;10.07;;;;;;;19.12;81.86;96688.81;5033594;28;20212;-87
2021/07/22 05:13:40;;;;;;;20.63;10.93;;;;;;;19.26;81.41;96689.53;5033412;28;20690;-86
2021/07/22 05:16:06;;;;;;;18.77;10.18;;;;;;;19.42;80.94;96692.44;5034019;28;20229;-87
2021/07/22 05:18:33;;;;;;;22.88;11.02;;;;;;;19.28;81.93;96688.25;5033470;28;20198;-87
2021/07/22 05:21:03;;;;;;;24.58;10.82;;;;;;;19.57;82.24;96692.09;5033344;28;20198;-87
2021/07/22 05:23:30;;;;;;;27.73;11.95;;;;;;;19.61;81.53;96694.94;5033900;28;20574;-88
2021/07/22 05:25:56;;;;;;;24.25;11.40;;;;;;;19.65;81.88;96698.81;5033120;28;20232;-88
2021/07/22 05:28:23;;;;;;;24.60;11.13;;;;;;;19.75;81.03;96699.06;5033256;28;20194;-88
2021/07/22 05:30:49;;;;;;;24.00;11.13;;;;;;;19.75;80.65;96696.41;5033150;28;20202;-87
2021/07/22 05:33:15;;;;;;;24.60;10.93;;;;;;;19.94;79.29;96694.59;5033069;28;20197;-88
2021/07/22 05:35:42;;;;;;;20.02;10.50;;;;;;;19.99;77.92;96700.91;5033282;28;20221;-88
2021/07/22 05:38:10;;;;;;;25.75;11.13;;;;;;;20.07;78.63;96689.88;5033039;28;20217;-88
2021/07/22 05:40:36;;;;;;;21.20;11.38;;;;;;;19.91;80.64;96690.50;5033242;28;20206;-88
2021/07/22 05:43:03;;;;;;;23.17;11.73;;;;;;;20.06;80.17;96688.28;5032736;28;20233;-88
2021/07/22 05:45:29;;;;;;;24.55;10.90;;;;;;;20.15;79.76;96689.59;5033083;28;20222;-88
2021/07/22 05:47:56;;;;;;;28.08;12.20;;;;;;;20.17;79.60;96695.53;5033122;28;20209;-87
2021/07/22 05:50:24;;;;;;;21.75;11.65;;;;;;;20.45;78.93;96690.44;5030512;28;20212;-89
2021/07/22 05:52:50;;;;;;;22.40;11.65;;;;;;;20.21;79.36;96702.06;5030318;28;20194;-88
2021/07/22 05:55:18;;;;;;;26.75;11.98;;;;;;;20.62;78.58;96692.25;5030267;28;20693;-88
2021/07/22 05:57:45;;;;;;;26.38;11.98;;;;;;;20.54;78.19;96687.19;5030671;28;20591;-88
2021/07/22 06:00:12;;;;;;;17.38;10.60;;;;;;;20.66;77.40;96695.28;5030604;28;20606;-88
2021/07/22 06:02:39;;;;;;;24.17;12.38;;;;;;;20.94;76.07;96688.31;5030595;28;20675;-88
2021/07/22 06:05:06;;;;;;;19.48;10.68;;;;;;;20.89;75.50;96686.28;5031553;28;20226;-88
2021/07/22 06:07:32;;;;;;;19.05;10.52;;;;;;;21.17;74.36;96694.50;5030447;28;20205;-88
2021/07/22 06:09:59;;;;;;;24.58;10.82;;;;;;;21.38;73.57;96687.75;5030820;28;20206;-87
2021/07/22 06:12:30;;;;;;;18.42;10.30;;;;;;;21.77;72.43;96685.22;5029984;28;20209;-88
2021/07/22 06:14:57;;;;;;;19.70;9.70;;;;;;;21.91;71.20;96684.72;5029814;28;20225;-88
2021/07/22 06:17:23;;;;;;;19.23;10.02;;;;;;;21.85;70.97;96692.91;5030409;28;20225;-87
2021/07/22 06:19:50;;;;;;;18.95;9.98;;;;;;;22.01;70.30;96692.16;5030226;28;20669;-88
2021/07/22 06:22:16;;;;;;;19.35;10.30;;;;;;;22.15;69.62;96689.78;5029498;28;20206;-89
2021/07/22 06:24:42;;;;;;;17.10;9.93;;;;;;;22.22;69.46;96687.81;5030640;28;20201;-88
2021/07/22 06:27:11;;;;;;;21.88;10.68;;;;;;;22.38;69.36;96695.13;5030120;28;20198;-88
2021/07/22 06:29:39;;;;;;;18.55;10.20;;;;;;;22.34;69.27;96693.97;5030760;28;20736;-89
2021/07/22 06:32:06;;;;;;;21.23;10.85;;;;;;;22.07;68.94;96692.03;5028622;28;20225;-87
2021/07/22 06:34:33;;;;;;;17.67;10.25;;;;;;;22.25;69.71;96699.91;5025789;28;20736;-87
2021/07/22 06:36:59;;;;;;;20.23;11.15;;;;;;;21.44;71.78;96695.69;5022862;28;20226;-87
2021/07/22 06:39:26;;;;;;;19.45;10.70;;;;;;;21.98;69.77;96698.00;5028617;28;20206;-87
2021/07/22 06:41:57;;;;;;;24.52;11.35;;;;;;;22.22;69.26;96697.72;5029438;28;20221;-88
2021/07/22 06:44:23;;;;;;;17.13;10.30;;;;;;;21.98;70.45;96692.66;5027384;28;20201;-87
2021/07/22 06:46:51;;;;;;;23.35;11.40;;;;;;;22.31;69.82;96689.09;5027976;28;20226;-87
2021/07/22 06:49:18;;;;;;;20.65;11.27;;;;;;;22.33;69.68;96700.41;5027285;28;20205;-87
2021/07/22 06:51:44;;;;;;;19.92;11.93;;;;;;;22.44;70.14;96690.66;5027671;28;20213;-87
2021/07/22 06:54:11;;;;;;;19.65;10.18;;;;;;;22.66;68.80;96686.25;5026881;28;20234;-88
2021/07/22 06:56:37;;;;;;;19.85;10.02;;;;;;;22.98;68.15;96691.69;5026922;28;20659;-88
2021/07/22 06:59:03;;;;;;;16.33;10.02;;;;;;;23.18;67.48;96689.38;5028753;28;20667;-88
2021/07/22 07:01:30;;;;;;;19.83;10.57;;;;;;;22.83;69.07;96685.22;5028658;28;20651;-89
2021/07/22 07:03:58;;;;;;;18.05;9.95;;;;;;;23.32;67.64;96682.63;5029570;28;20202;-88
2021/07/22 07:06:24;;;;;;;17.27;10.73;;;;;;;23.58;66.21;96690.81;5029194;28;20228;-88
2021/07/22 07:08:51;;;;;;;21.42;11.15;;;;;;;23.33;65.30;96681.53;5029605;28;20205;-88
2021/07/22 07:11:17;;;;;;;19.95;10.40;;;;;;;23.55;66.01;96683.25;5029921;28;20206;-87
2021/07/22 07:13:44;;;;;;;20.88;11.63;;;;;;;23.48;67.32;96679.91;5028269;28;20205;-88
2021/07/22 07:16:10;;;;;;;18.27;10.35;;;;;;;23.51;66.27;96687.50;5028578;28;20586;-89
2021/07/22 07:18:37;;;;;;;18.90;10.85;;;;;;;23.44;65.74;96692.22;5031776;28;20788;-89
2021/07/22 07:21:05;;;;;;;20.05;11.10;;;;;;;23.77;65.55;96692.22;5030101;28;20206;-88
2021/07/22 07:23:32;;;;;;;22.60;11.38;;;;;;;23.67;64.74;96688.53;5031411;28;20206;-89
2021/07/22 07:25:59;;;;;;;16.80;10.55;;;;;;;23.75;66.12;96688.13;5029771;28;20232;-88
2021/07/22 07:28:26;;;;;;;19.70;11.45;;;;;;;23.60;64.28;96679.81;5028069;28;20209;-88
2021/07/22 07:30:53;;;;;;;19.20;10.73;;;;;;;24.01;66.69;96693.63;5029189;28;20585;-88
2021/07/22 07:33:20;;;;;;;17.38;10.60;;;;;;;24.10;64.39;96690.25;5033551;28;20668;-89
2021/07/22 07:35:47;;;;;;;21.05;10.75;;;;;;;23.92;65.16;96694.28;5033905;28;20225;-88
2021/07/22 07:38:16;;;;;;;20.40;11.60;;;;;;;24.21;64.03;96686.63;5035814;28;20202;-90
2021/07/22 07:40:43;;;;;;;17.92;10.38;;;;;;;24.27;65.17;96677.53;5035016;28;20651;-87
2021/07/22 07:43:14;;;;;;;18.75;11.13;;;;;;;24.44;62.25;96677.47;5034873;28;20666;-87
2021/07/22 07:45:40;;;;;;;23.58;10.68;;;;;;;24.48;61.58;96681.31;5034494;28;20221;-87
2021/07/22 07:48:07;;;;;;;21.13;10.00;;;;;;;23.61;67.10;96690.34;5035671;28;20198;-90
2021/07/22 07:50:34;;;;;;;18.95;10.38;;;;;;;23.89;65.56;96679.44;5033499;28;20216;-87
2021/07/22 07:53:00;;;;;;;18.77;10.95;;;;;;;23.76;68.31;96687.88;5032013;28;20682;-87
2021/07/22 07:55:28;;;;;;;16.73;10.15;;;;;;;24.14;65.19;96682.50;5036524;28;20236;-88
2021/07/22 07:57:54;;;;;;;17.58;10.48;;;;;;;23.82;66.38;96678.81;5033167;28;20210;-89
2021/07/22 08:00:21;;;;;;;17.45;10.35;;;;;;;23.81;67.17;96687.97;5031992;28;20206;-87
2021/07/22 08:02:48;;;;;;;25.90;10.43;;;;;;;23.56;66.78;96684.88;5033209;28;20198;-87
2021/07/22 08:05:15;;;;;;;19.98;11.30;;;;;;;24.12;65.66;96684.59;5032109;28;20248;-88
2021/07/22 08:07:41;;;;;;;18.17;10.38;;;;;;;24.03;66.68;96680.72;5032760;28;20206;-87
2021/07/22 08:10:08;;;;;;;18.05;9.75;;;;;;;24.25;65.08;96678.84;5031066;28;20587;-88
2021/07/22 08:12:36;;;;;;;16.38;9.73;;;;;;;24.31;65.27;96673.28;5029271;28;20202;-87
2021/07/22 08:15:05;;;;;;;20.10;10.52;;;;;;;24.25;64.86;96673.44;5029758;28;20592;-88
2021/07/22 08:17:31;;;;;;;15.85;9.85;;;;;;;24.69;63.27;96673.19;5029332;28;20206;-88
2021/07/22 08:20:00;;;;;;;17.60;10.00;;;;;;;24.62;63.41;96670.69;5030174;28;20212;-86
2021/07/22 08:22:26;;;;;;;16.10;9.48;;;;;;;24.91;62.42;96668.53;5035318;28;20206;-87
2021/07/22 08:24:53;;;;;;;19.60;11.10;;;;;;;24.83;63.19;96666.31;5034577;28;20202;-86
2021/07/22 08:27:25;;;;;;;20.20;10.27;;;;;;;24.65;65.91;96670.19;5031994;28;20206;-86
2021/07/22 08:29:53;;;;;;;20.75;10.32;;;;;;;24.99;63.73;96660.81;5035685;28;20665;-87
2021/07/22 08:32:21;;;;;;;17.17;10.05;;;;;;;25.43;63.53;96667.69;5033808;28;20202;-87
2021/07/22 08:34:48;;;;;;;19.27;10.27;;;;;;;25.43;63.44;96667.69;5036110;28;20636;-87
2021/07/22 08:37:15;;;;;;;16.27;10.15;;;;;;;25.80;60.55;96673.91;5035515;28;20726;-86
2021/07/22 08:39:43;;;;;;;20.55;10.55;;;;;;;25.63;60.15;96674.03;5032334;28;20212;-86
2021/07/22 08:42:11;;;;;;;19.92;9.95;;;;;;;25.76;60.02;96672.81;5033239;28;20209;-88
2021/07/22 08:44:39;;;;;;;16.45;9.73;;;;;;;25.89;60.92;96673.97;5034280;28;20541;-87
2021/07/22 08:47:08;;;;;;;16.67;9.63;;;;;;;26.11;59.50;96674.63;5034595;28;20212;-87
2021/07/22 08:49:35;;;;;;;17.02;9.55;;;;;;;26.19;60.30;96662.50;5034736;28;20212;-87
2021/07/22 08:52:06;;;;;;;16.05;9.50;;;;;;;26.11;62.35;96663.81;5033759;28;20202;-86
2021/07/22 08:54:32;;;;;;;19.00;9.70;;;;;;;26.46;56.69;96669.38;5032764;28;20229;-87
2021/07/22 08:57:00;;;;;;;18.13;9.68;;;;;;;26.32;57.30;96662.81;5033011;28;20571;-86
2021/07/22 08:59:30;;;;;;;15.43;9.50;;;;;;;26.64;59.88;96663.50;5035419;28;20208;-87
2021/07/22 09:01:57;;;;;;;18.10;9.52;;;;;;;26.49;56.76;96661.56;5034224;28;20209;-87
2021/07/22 09:04:25;;;;;;;13.20;8.95;;;;;;;26.83;55.23;96653.81;5031799;28;20213;-86
2021/07/22 09:06:51;;;;;;;16.00;8.70;;;;;;;26.85;57.71;96659.78;5033800;28;20528;-86
2021/07/22 09:09:18;;;;;;;17.73;9.18;;;;;;;27.21;57.08;96659.56;5037432;28;20193;-86
2021/07/22 09:11:56;;;;;;;16.60;9.32;;;;;;;27.34;57.45;96651.72;5033311;28;20591;-87
2021/07/22 09:14:24;;;;;;;16.83;8.98;;;;;;;27.36;54.73;96649.53;5034558;28;20216;-87
2021/07/22 09:16:50;;;;;;;14.63;9.00;;;;;;;26.97;54.13;96649.53;5032494;28;20222;-87
2021/07/22 09:19:36;;;;;;;16.95;9.15;;;;;;;27.44;55.46;96646.28;5032788;28;20198;-86
2021/07/22 09:22:04;;;;;;;20.90;9.68;;;;;;;26.98;56.54;96651.97;5036473;28;20281;-86
2021/07/22 09:24:47;;;;;;;14.77;8.55;;;;;;;27.11;53.60;96646.00;5032724;28;20217;-86
2021/07/22 09:27:32;;;;;;;14.27;8.93;;;;;;;26.96;56.75;96653.31;5032695;28;20604;-86
2021/07/22 09:29:59;;;;;;;20.20;9.13;;;;;;;27.23;54.96;96643.88;5033960;28;20186;-86
2021/07/22 09:32:30;;;;;;;15.32;8.82;;;;;;;27.47;55.60;96650.34;5033805;28;20229;-86
2021/07/22 09:35:12;;;;;;;17.50;9.23;;;;;;;27.68;53.70;96654.69;5033323;28;20230;-87
2021/07/22 09:37:40;;;;;;;15.82;9.10;;;;;;;27.42;56.25;96645.75;5032816;28;20264;-87
2021/07/22 09:40:09;;;;;;;17.95;8.85;;;;;;;27.62;52.46;96648.44;5034607;28;20202;-87
2021/07/22 09:42:43;;;;;;;14.98;8.50;;;;;;;27.24;51.21;96651.72;5033341;28;20202;-86
2021/07/22 09:45:17;;;;;;;30.40;9.45;;;;;;;27.23;52.15;96644.66;5030719;28;20225;-85
2021/07/22 09:47:44;;;;;;;29.90;9.27;;;;;;;27.58;54.03;96641.16;5031675;28;20206;-88
2021/07/22 09:50:14;;;;;;;15.55;8.85;;;;;;;27.72;49.89;96645.72;5028833;28;20786;-88
2021/07/22 09:52:43;;;;;;;15.25;8.38;;;;;;;27.99;51.22;96647.03;5028375;28;20245;-88
2021/07/22 09:55:24;;;;;;;13.98;8.95;;;;;;;28.16;53.93;96650.25;5028038;28;20245;-89
2021/07/22 09:57:54;;;;;;;13.55;7.88;;;;;;;28.00;49.15;96645.91;5029333;28;20198;-89
2021/07/22 10:00:21;;;;;;;14.63;8.25;;;;;;;27.95;52.24;96637.00;5029638;28;20263;-89
2021/07/22 10:02:52;;;;;;;14.77;9.15;;;;;;;28.58;50.90;96637.06;5029402;28;20201;-89
2021/07/22 10:05:22;;;;;;;14.70;8.65;;;;;;;28.40;48.75;96638.50;5027670;28;20629;-88
2021/07/22 10:07:51;;;;;;;14.10;8.52;;;;;;;28.42;48.12;96636.31;5027961;28;20658;-87
2021/07/22 10:10:18;;;;;;;17.10;8.48;;;;;;;28.66;47.83;96636.47;5027526;28;20507;-88
2021/07/22 10:12:52;;;;;;;13.75;8.45;;;;;;;27.88;48.29;96639.22;5027656;28;20573;-88
2021/07/22 10:15:19;;;;;;;14.60;8.10;;;;;;;27.75;48.85;96631.66;5027490;28;20237;-88
2021/07/22 10:17:47;;;;;;;13.98;8.18;;;;;;;28.25;47.79;96626.91;5027344;28;20206;-88
2021/07/22 10:20:15;;;;;;;12.73;8.25;;;;;;;28.41;49.53;96618.44;5028229;28;20202;-89
2021/07/22 10:22:44;;;;;;;16.40;8.93;;;;;;;28.90;51.74;96619.25;5027126;28;20202;-89
2021/07/22 10:25:13;;;;;;;16.30;8.55;;;;;;;28.47;51.63;96628.13;5027467;28;20225;-89
2021/07/22 10:27:42;;;;;;;18.35;8.70;;;;;;;28.71;46.49;96614.72;5028218;28;20202;-89
2021/07/22 10:30:11;;;;;;;15.02;8.55;;;;;;;28.82;46.81;96616.28;5028415;28;20198;-88
2021/07/22 10:32:39;;;;;;;14.77;8.27;;;;;;;28.94;47.34;96619.50;5027100;28;20198;-88
2021/07/22 10:35:07;;;;;;;18.60;8.55;;;;;;;28.92;45.06;96617.06;5027225;28;20788;-88
2021/07/22 10:37:34;;;;;;;19.00;8.50;;;;;;;29.42;47.40;96616.69;5027313;28;20201;-89
2021/07/22 10:40:08;;;;;;;14.48;8.30;;;;;;;29.55;46.32;96613.31;5028248;28;20213;-88
2021/07/22 10:42:42;;;;;;;17.30;8.63;;;;;;;29.77;45.59;96614.41;5027946;28;20666;-88
2021/07/22 10:45:29;;;;;;;14.30;8.55;;;;;;;29.59;43.10;96607.81;5028535;28;20222;-89
2021/07/22 10:48:06;;;;;;;14.32;8.15;;;;;;;29.46;43.22;96610.38;5027995;28;20201;-89
2021/07/22 10:51:01;;;;;;;17.33;8.77;;;;;;;29.16;41.21;96607.09;5027300;28;20555;-88
2021/07/22 10:53:38;;;;;;;15.45;8.82;;;;;;;29.59;44.97;96605.09;5027088;28;20209;-88
2021/07/22 10:56:07;;;;;;;15.35;8.02;;;;;;;29.12;46.90;96606.03;5027639;28;20674;-89
2021/07/22 10:58:58;;;;;;;15.07;9.05;;;;;;;29.60;42.61;96603.97;5028132;28;20256;-90
2021/07/22 11:01:54;;;;;;;15.48;8.27;;;;;;;30.12;42.38;96595.84;5012283;28;20216;-89
2021/07/22 11:04:50;;;;;;;12.15;7.68;;;;;;;30.11;40.15;96593.41;5027469;28;20316;-90
2021/07/22 11:07:18;;;;;;;14.57;8.35;;;;;;;30.28;43.17;96598.06;5028672;28;20201;-88
2021/07/22 11:09:46;;;;;;;16.38;8.18;;;;;;;29.18;41.32;96591.34;5031008;28;20583;-88
2021/07/22 11:12:39;;;;;;;14.32;8.18;;;;;;;29.68;42.68;96599.84;5031103;28;20197;-88
2021/07/22 11:15:06;;;;;;;17.13;8.82;;;;;;;30.01;41.88;96594.31;5031042;28;20221;-88
2021/07/22 11:17:33;;;;;;;14.65;8.30;;;;;;;30.16;40.63;96596.06;5031844;28;20205;-89
2021/07/22 11:20:43;;;;;;;14.55;8.43;;;;;;;30.10;42.73;96598.03;5030732;28;20204;-88
2021/07/22 11:23:17;;;;;;;15.77;8.50;;;;;;;30.12;39.62;96589.56;5031560;28;20209;-88
2021/07/22 11:25:48;;;;;;;17.00;8.25;;;;;;;29.67;42.40;96588.16;5030528;28;20756;-89
2021/07/22 11:28:22;;;;;;;15.57;9.32;;;;;;;30.09;43.31;96582.00;5030519;28;20745;-89